createdAt,value
2023-03-08T00:01:49.571Z,39.78
2023-03-08T00:04:56.240Z,38.55
2023-03-08T00:08:02.083Z,40.78
2023-03-08T00:11:07.659Z,44.63
2023-03-08T00:14:13.659Z,49.73
2023-03-08T00:17:20.245Z,61.48
2023-03-08T00:20:26.384Z,52.80
2023-03-08T00:23:32.952Z,57.33
2023-03-08T00:26:38.182Z,52.13
2023-03-08T00:29:43.913Z,58.85
2023-03-08T00:32:50.267Z,55.52
2023-03-08T00:35:56.103Z,61.02
2023-03-08T00:39:02.778Z,70.22
2023-03-08T00:42:09.004Z,58.02
2023-03-08T00:45:14.183Z,49.63
2023-03-08T00:48:20.615Z,50.73
2023-03-08T00:51:31.198Z,54.83
2023-03-08T00:54:37.472Z,62.95
2023-03-08T00:57:43.527Z,58.02
2023-03-08T01:00:49.704Z,55.38
2023-03-08T01:03:54.398Z,60.08
2023-03-08T01:07:01.755Z,57.48
2023-03-08T01:10:11.776Z,57.30
2023-03-08T01:13:19.949Z,61.30
2023-03-08T01:16:39.241Z,63.78
2023-03-08T01:19:45.143Z,59.20
2023-03-08T01:22:44.912Z,61.00
2023-03-08T01:25:37.455Z,67.65
2023-03-08T01:28:43.189Z,65.23
2023-03-08T01:31:47.783Z,71.47
2023-03-08T01:34:54.904Z,74.20
2023-03-08T01:38:03.202Z,71.92
2023-03-08T01:41:13.801Z,72.55
2023-03-08T01:44:16.151Z,68.15
2023-03-08T01:47:27.608Z,64.70
2023-03-08T01:50:35.781Z,67.27
2023-03-08T01:53:41.627Z,66.95
2023-03-08T01:56:47.741Z,70.92
2023-03-08T01:59:54.263Z,80.12
2023-03-08T02:03:19.802Z,82.82
2023-03-08T02:06:26.058Z,86.95
2023-03-08T02:09:32.705Z,85.53
2023-03-08T02:12:39.271Z,95.17
2023-03-08T02:15:45.764Z,89.37
2023-03-08T02:18:51.975Z,84.32
2023-03-08T02:21:57.640Z,103.47
2023-03-08T02:25:03.495Z,95.85
2023-03-08T02:28:10.924Z,77.62
2023-03-08T02:31:17.220Z,73.83
2023-03-08T02:34:22.831Z,68.67
2023-03-08T02:37:29.658Z,64.92
2023-03-08T02:40:35.632Z,67.10
2023-03-08T02:43:41.599Z,66.12
2023-03-08T02:46:47.209Z,57.20
2023-03-08T02:49:52.707Z,63.60
2023-03-08T02:52:58.441Z,67.58
2023-03-08T02:56:03.096Z,57.95
2023-03-08T02:59:08.678Z,79.85
2023-03-08T03:02:15.103Z,73.25
2023-03-08T03:05:21.817Z,69.50
2023-03-08T03:08:28.447Z,71.37
2023-03-08T03:11:36.846Z,65.25
2023-03-08T03:14:43.208Z,60.80
2023-03-08T03:17:49.514Z,68.62
2023-03-08T03:20:55.378Z,65.35
2023-03-08T03:24:01.103Z,86.72
2023-03-08T03:27:13.974Z,70.72
2023-03-08T03:30:20.633Z,61.10
2023-03-08T03:33:26.519Z,70.87
2023-03-08T03:36:35.891Z,64.70
2023-03-08T03:39:41.863Z,75.50
2023-03-08T03:42:48.547Z,72.97
2023-03-08T03:45:55.360Z,69.75
2023-03-08T03:49:02.021Z,65.97
2023-03-08T03:52:09.122Z,77.95
2023-03-08T03:55:16.938Z,73.62
2023-03-08T03:58:16.487Z,71.05
2023-03-08T04:01:26.004Z,61.55
2023-03-08T04:04:33.178Z,68.50
2023-03-08T04:07:39.215Z,72.30
2023-03-08T04:10:43.815Z,75.60
2023-03-08T04:13:49.901Z,72.10
2023-03-08T04:16:51.260Z,73.17
2023-03-08T04:19:52.194Z,62.08
2023-03-08T04:22:59.165Z,70.37
2023-03-08T04:26:08.242Z,63.60
2023-03-08T04:29:13.984Z,65.47
2023-03-08T04:32:21.913Z,72.22
2023-03-08T04:35:28.303Z,62.43
2023-03-08T04:38:35.235Z,66.33
2023-03-08T04:41:41.793Z,68.28
2023-03-08T04:44:51.624Z,71.67
2023-03-08T04:47:58.135Z,72.10
2023-03-08T04:51:10.806Z,72.67
2023-03-08T04:54:17.359Z,71.80
2023-03-08T04:57:24.579Z,72.87
2023-03-08T05:00:30.981Z,65.05
2023-03-08T05:03:37.769Z,69.90
2023-03-08T05:06:36.895Z,65.57
2023-03-08T05:09:44.817Z,69.62
2023-03-08T05:12:50.815Z,69.53
2023-03-08T05:15:57.765Z,72.45
2023-03-08T05:19:02.836Z,70.97
2023-03-08T05:22:12.733Z,78.90
2023-03-08T05:25:20.353Z,76.80
2023-03-08T05:28:26.986Z,71.62
2023-03-08T05:31:36.268Z,73.97
2023-03-08T05:34:41.784Z,74.00
2023-03-08T05:37:49.383Z,72.60
2023-03-08T05:40:57.314Z,74.40
2023-03-08T05:44:05.814Z,75.17
2023-03-08T05:47:11.479Z,76.77
2023-03-08T05:50:17.128Z,72.60
2023-03-08T05:53:23.838Z,66.25
2023-03-08T05:56:35.861Z,63.90
2023-03-08T05:59:47.975Z,59.42
2023-03-08T06:02:53.955Z,57.78
2023-03-08T06:05:59.883Z,60.90
2023-03-08T06:09:05.809Z,56.77
2023-03-08T06:12:13.648Z,58.05
2023-03-08T06:15:22.909Z,51.10
2023-03-08T06:18:30.855Z,48.38
2023-03-08T06:21:38.542Z,53.28
2023-03-08T06:24:44.264Z,49.98
2023-03-08T06:27:52.937Z,51.20
2023-03-08T06:31:02.471Z,41.65
2023-03-08T06:34:08.309Z,42.93
2023-03-08T06:37:14.635Z,41.58
2023-03-08T06:40:20.373Z,43.25
2023-03-08T06:43:27.261Z,39.53
2023-03-08T06:46:26.766Z,41.23
2023-03-08T06:49:13.548Z,38.88
2023-03-08T06:52:06.953Z,39.95
2023-03-08T06:54:53.253Z,39.27
2023-03-08T06:57:46.437Z,39.80
2023-03-08T07:00:33.552Z,36.28
2023-03-08T07:03:26.254Z,40.55
2023-03-08T07:06:21.812Z,38.10
2023-03-08T07:09:28.070Z,37.93
2023-03-08T07:12:33.942Z,38.20
2023-03-08T07:15:40.686Z,44.80
2023-03-08T07:18:48.684Z,42.53
2023-03-08T07:21:54.585Z,39.45
2023-03-08T07:25:03.362Z,46.25
2023-03-08T07:28:09.202Z,48.17
2023-03-08T07:31:14.210Z,50.30
2023-03-08T07:34:20.516Z,49.33
2023-03-08T07:37:28.792Z,51.00
2023-03-08T07:40:34.161Z,43.10
2023-03-08T07:43:39.659Z,49.98
2023-03-08T07:46:47.932Z,47.88
2023-03-08T07:49:53.124Z,44.83
2023-03-08T07:52:59.022Z,45.03
2023-03-08T07:56:05.426Z,45.23
2023-03-08T07:59:14.920Z,50.43
2023-03-08T08:02:20.929Z,47.58
2023-03-08T08:05:28.049Z,48.68
2023-03-08T08:08:34.269Z,36.95
2023-03-08T08:11:41.744Z,46.58
2023-03-08T08:14:47.229Z,37.40
2023-03-08T08:17:53.421Z,31.68
2023-03-08T08:21:00.038Z,31.85
2023-03-08T08:24:05.876Z,28.92
2023-03-08T08:27:15.182Z,22.55
2023-03-08T08:30:21.857Z,29.65
2023-03-08T08:33:27.349Z,34.38
2023-03-08T08:36:34.208Z,28.47
2023-03-08T08:39:40.941Z,29.40
2023-03-08T08:42:47.364Z,31.42
2023-03-08T08:45:58.918Z,28.60
2023-03-08T08:49:04.707Z,31.62
2023-03-08T08:52:11.510Z,25.85
2023-03-08T08:55:20.117Z,21.93
2023-03-08T08:58:31.954Z,27.98
2023-03-08T09:01:46.589Z,24.72
2023-03-08T09:04:57.592Z,23.10
2023-03-08T09:08:11.665Z,26.52
2023-03-08T09:11:24.509Z,19.92
2023-03-08T09:14:35.111Z,20.92
2023-03-08T09:20:53.812Z,20.82
2023-03-08T09:24:02.834Z,27.82
2023-03-08T09:27:11.156Z,20.30
2023-03-08T09:30:19.383Z,24.02
2023-03-08T09:33:20.178Z,21.82
2023-03-08T09:39:31.793Z,20.80
2023-03-08T09:42:45.680Z,21.50
2023-03-08T09:45:50.878Z,18.62
2023-03-08T09:48:57.966Z,17.73
2023-03-08T09:52:05.234Z,12.15
2023-03-08T09:55:11.099Z,12.53
2023-03-08T09:58:49.278Z,14.18
2023-03-08T10:02:20.994Z,13.13
2023-03-08T10:06:07.397Z,11.20
2023-03-08T10:09:44.217Z,11.68
2023-03-08T10:13:32.025Z,13.48
2023-03-08T10:16:47.043Z,13.53
2023-03-08T10:20:15.930Z,16.70
2023-03-08T10:23:34.494Z,10.20
2023-03-08T10:26:40.453Z,13.10
2023-03-08T10:29:46.587Z,9.90
2023-03-08T10:32:58.016Z,12.45
2023-03-08T10:36:17.258Z,11.35
2023-03-08T10:39:17.973Z,15.90
2023-03-08T10:42:30.734Z,10.90
2023-03-08T10:45:37.608Z,11.33
2023-03-08T10:48:43.556Z,13.53
2023-03-08T10:51:49.669Z,10.40
2023-03-08T10:54:57.461Z,13.75
2023-03-08T10:58:12.954Z,19.65
2023-03-08T11:01:39.046Z,12.80
2023-03-08T11:04:45.701Z,11.33
2023-03-08T11:07:50.773Z,13.90
2023-03-08T11:10:56.171Z,21.27
2023-03-08T11:14:02.372Z,22.93
2023-03-08T11:17:21.390Z,19.42
2023-03-08T11:20:45.959Z,11.88
2023-03-08T11:23:56.616Z,17.60
2023-03-08T11:27:15.221Z,11.10
2023-03-08T11:30:56.362Z,22.98
2023-03-08T11:34:21.892Z,21.50
2023-03-08T11:37:38.237Z,13.10
2023-03-08T11:41:30.006Z,10.45
2023-03-08T11:44:46.775Z,9.83
2023-03-08T11:48:13.597Z,10.90
2023-03-08T11:51:29.489Z,15.08
2023-03-08T11:54:58.282Z,9.58
2023-03-08T11:58:03.268Z,11.03
2023-03-08T12:01:15.797Z,12.58
2023-03-08T12:04:30.047Z,14.40
2023-03-08T12:07:59.220Z,13.28
2023-03-08T12:11:34.022Z,12.93
2023-03-08T12:14:52.584Z,12.10
2023-03-08T12:18:03.194Z,15.38
2023-03-08T12:21:16.840Z,16.10
2023-03-08T12:25:00.200Z,12.50
2023-03-08T12:28:40.895Z,15.43
2023-03-08T12:35:00.191Z,10.82
2023-03-08T12:38:18.294Z,8.90
2023-03-08T12:41:44.433Z,12.65
2023-03-08T12:44:51.099Z,12.25
2023-03-08T12:47:57.679Z,11.18
2023-03-08T12:51:14.089Z,12.28
2023-03-08T12:54:19.525Z,13.48
2023-03-08T12:57:37.472Z,11.53
2023-03-08T13:00:51.246Z,11.15
2023-03-08T13:03:57.351Z,12.73
2023-03-08T13:07:26.851Z,11.35
2023-03-08T13:10:37.734Z,11.85
2023-03-08T13:14:05.372Z,12.35
2023-03-08T13:17:12.956Z,12.58
2023-03-08T13:20:43.914Z,12.60
2023-03-08T13:23:57.086Z,12.07
2023-03-08T13:27:17.561Z,10.50
2023-03-08T13:30:42.366Z,11.05
2023-03-08T13:33:59.132Z,11.20
2023-03-08T13:37:05.001Z,10.88
2023-03-08T13:40:14.242Z,10.98
2023-03-08T13:43:20.721Z,11.30
2023-03-08T13:46:27.939Z,11.90
2023-03-08T13:49:51.727Z,11.43
2023-03-08T13:52:57.032Z,13.50
2023-03-08T13:56:08.514Z,10.82
2023-03-08T13:59:15.311Z,8.68
2023-03-08T14:02:32.744Z,12.75
2023-03-08T14:05:47.254Z,13.38
2023-03-08T14:08:53.058Z,10.60
2023-03-08T14:11:52.213Z,11.68
2023-03-08T14:15:00.900Z,10.17
2023-03-08T14:18:08.808Z,8.60
2023-03-08T14:21:37.621Z,13.18
2023-03-08T14:24:48.499Z,9.70
2023-03-08T14:27:55.697Z,12.05
2023-03-08T14:31:04.076Z,10.98
2023-03-08T14:34:16.375Z,10.35
2023-03-08T14:37:37.707Z,10.30
2023-03-08T14:40:41.680Z,9.73
2023-03-08T14:43:48.360Z,9.55
2023-03-08T14:46:54.324Z,13.83
2023-03-08T14:49:59.757Z,16.17
2023-03-08T14:53:08.774Z,18.62
2023-03-08T14:56:15.262Z,16.60
2023-03-08T14:59:27.182Z,18.35
2023-03-08T15:02:27.815Z,19.05
2023-03-08T15:05:35.103Z,19.35
2023-03-08T15:08:41.190Z,17.45
2023-03-08T15:11:47.260Z,12.70
2023-03-08T15:14:52.540Z,12.82
2023-03-08T15:17:59.600Z,14.70
2023-03-08T15:20:57.301Z,18.85
2023-03-08T15:24:03.203Z,13.83
2023-03-08T15:27:08.358Z,18.25
2023-03-08T15:30:14.816Z,11.70
2023-03-08T15:33:21.246Z,16.05
2023-03-08T15:36:23.421Z,27.40
2023-03-08T15:39:31.658Z,34.53
2023-03-08T15:42:39.036Z,43.40
2023-03-08T15:45:44.735Z,40.73
2023-03-08T15:48:52.806Z,22.02
2023-03-08T15:51:59.343Z,21.75
2023-03-08T15:55:04.882Z,18.62
2023-03-08T15:58:11.979Z,19.48
2023-03-08T16:01:16.622Z,16.40
2023-03-08T16:04:22.007Z,13.62
2023-03-08T16:07:32.215Z,11.12
2023-03-08T16:10:37.581Z,19.85
2023-03-08T16:13:44.629Z,14.45
2023-03-08T16:16:50.308Z,8.33
2023-03-08T16:19:56.214Z,14.40
2023-03-08T16:23:02.818Z,17.87
2023-03-08T16:26:18.024Z,15.05
2023-03-08T16:29:23.790Z,17.98
2023-03-08T16:32:31.578Z,19.65
2023-03-08T16:35:36.754Z,14.15
2023-03-08T16:38:44.773Z,15.00
2023-03-08T16:41:52.500Z,18.37
2023-03-08T16:44:57.163Z,17.62
2023-03-08T16:47:43.607Z,15.55
2023-03-08T16:50:36.883Z,17.32
2023-03-08T16:53:23.015Z,15.25
2023-03-08T16:56:16.776Z,13.28
2023-03-08T16:59:21.906Z,21.03
2023-03-08T17:02:23.879Z,15.15
2023-03-08T17:05:17.333Z,16.48
2023-03-08T17:08:23.165Z,16.48
2023-03-08T17:11:35.170Z,16.00
2023-03-08T17:14:42.907Z,15.48
2023-03-08T17:17:49.708Z,16.93
2023-03-08T17:20:49.762Z,14.55
2023-03-08T17:23:57.433Z,18.77
2023-03-08T17:27:05.086Z,18.07
2023-03-08T17:30:11.497Z,12.82
2023-03-08T17:33:19.911Z,15.88
2023-03-08T17:36:26.088Z,15.28
2023-03-08T17:39:32.661Z,12.78
2023-03-08T17:42:39.379Z,11.43
2023-03-08T17:45:45.903Z,15.03
2023-03-08T17:48:52.252Z,17.42
2023-03-08T17:51:57.148Z,23.55
2023-03-08T17:55:03.460Z,15.00
2023-03-08T17:58:09.056Z,19.32
2023-03-08T18:01:26.642Z,11.48
2023-03-08T18:04:32.204Z,10.08
2023-03-08T18:07:41.295Z,8.53
2023-03-08T18:10:46.030Z,15.38
2023-03-08T18:13:52.498Z,15.20
2023-03-08T18:16:57.738Z,14.68
2023-03-08T18:20:03.404Z,10.43
2023-03-08T18:23:10.865Z,9.55
2023-03-08T18:26:17.394Z,11.28
2023-03-08T18:29:23.855Z,11.68
2023-03-08T18:32:30.732Z,15.45
2023-03-08T18:35:36.952Z,19.20
2023-03-08T18:38:43.189Z,12.53
2023-03-08T18:41:49.843Z,11.38
2023-03-08T18:44:55.827Z,10.95
2023-03-08T18:48:05.704Z,12.33
2023-03-08T18:51:16.706Z,13.55
2023-03-08T18:54:30.464Z,10.10
2023-03-08T18:57:35.607Z,11.78
2023-03-08T19:00:41.480Z,15.80
2023-03-08T19:03:47.783Z,18.02
2023-03-08T19:06:54.342Z,19.07
2023-03-08T19:09:59.803Z,15.95
2023-03-08T19:13:05.567Z,14.65
2023-03-08T19:16:14.191Z,18.30
2023-03-08T19:19:16.984Z,18.15
2023-03-08T19:22:09.491Z,18.23
2023-03-08T19:25:15.519Z,14.13
2023-03-08T19:28:22.220Z,19.15
2023-03-08T19:31:32.926Z,16.82
2023-03-08T19:34:41.587Z,15.83
2023-03-08T19:37:48.614Z,10.72
2023-03-08T19:41:06.987Z,19.98
2023-03-08T19:44:14.401Z,13.55
2023-03-08T19:47:21.107Z,11.48
2023-03-08T19:50:21.026Z,13.85
2023-03-08T19:53:27.508Z,16.48
2023-03-08T19:56:34.462Z,18.02
2023-03-08T19:59:39.487Z,13.75
2023-03-08T20:02:46.414Z,19.57
2023-03-08T20:05:58.273Z,17.82
2023-03-08T20:08:58.954Z,24.63
2023-03-08T20:11:51.252Z,20.02
2023-03-08T20:15:00.457Z,20.97
2023-03-08T20:18:06.677Z,22.30
2023-03-08T20:21:13.311Z,21.40
2023-03-08T20:24:21.837Z,21.75
2023-03-08T20:27:28.347Z,19.25
2023-03-08T20:30:33.764Z,17.82
2023-03-08T20:33:40.048Z,17.77
2023-03-08T20:36:47.541Z,16.95
2023-03-08T20:39:53.778Z,25.23
2023-03-08T20:43:02.051Z,21.52
2023-03-08T20:46:10.009Z,20.52
2023-03-08T20:49:19.279Z,26.55
2023-03-08T20:52:24.585Z,28.30
2023-03-08T20:55:31.292Z,21.45
2023-03-08T20:58:38.103Z,24.87
2023-03-08T21:01:46.657Z,17.95
2023-03-08T21:04:51.816Z,26.68
2023-03-08T21:07:58.379Z,26.27
2023-03-08T21:11:06.499Z,25.48
2023-03-08T21:14:11.811Z,24.77
2023-03-08T21:17:18.542Z,25.85
2023-03-08T21:20:25.135Z,33.35
2023-03-08T21:23:31.776Z,28.15
2023-03-08T21:26:38.332Z,33.20
2023-03-08T21:29:44.037Z,28.85
2023-03-08T21:32:49.699Z,28.50
2023-03-08T21:35:56.444Z,26.48
2023-03-08T21:39:07.054Z,25.32
2023-03-08T21:42:13.577Z,38.42
2023-03-08T21:45:20.462Z,30.10
2023-03-08T21:48:20.490Z,32.28
2023-03-08T21:51:26.589Z,37.78
2023-03-08T21:54:33.036Z,28.87
2023-03-08T21:57:38.826Z,31.65
2023-03-08T22:00:44.392Z,29.75
2023-03-08T22:03:49.560Z,41.70
2023-03-08T22:06:55.813Z,33.83
2023-03-08T22:10:01.979Z,28.07
2023-03-08T22:13:08.041Z,34.40
2023-03-08T22:16:14.479Z,39.98
2023-03-08T22:19:19.867Z,38.40
2023-03-08T22:22:25.437Z,32.63
2023-03-08T22:25:30.776Z,30.12
2023-03-08T22:28:38.016Z,32.08
2023-03-08T22:31:44.575Z,40.20
2023-03-08T22:34:50.668Z,35.92
2023-03-08T22:37:55.853Z,53.87
2023-03-08T22:41:02.992Z,38.05
2023-03-08T22:44:09.927Z,37.95
2023-03-08T22:47:17.404Z,40.58
2023-03-08T22:50:22.984Z,47.70
2023-03-08T22:53:29.231Z,40.58
2023-03-08T22:56:41.647Z,39.55
2023-03-08T22:59:47.955Z,41.20
2023-03-08T23:02:56.729Z,38.85
2023-03-08T23:06:03.328Z,42.50
2023-03-08T23:09:15.151Z,35.28
2023-03-08T23:12:22.163Z,38.35
2023-03-08T23:15:27.962Z,43.73
2023-03-08T23:18:33.727Z,33.10
2023-03-08T23:21:42.284Z,38.13
2023-03-08T23:24:48.064Z,35.60
2023-03-08T23:27:54.154Z,31.50
2023-03-08T23:31:00.339Z,47.62
2023-03-08T23:34:07.219Z,38.10
2023-03-08T23:37:13.666Z,44.65
2023-03-08T23:40:21.722Z,37.13
2023-03-08T23:43:27.528Z,35.23
2023-03-08T23:46:33.901Z,32.90
2023-03-08T23:49:39.671Z,35.75
2023-03-08T23:52:45.398Z,36.45
2023-03-08T23:55:55.028Z,37.20
2023-03-08T23:59:02.771Z,34.92
